Time;durP1;ratioP1;P1;durP2;ratioP2;P2;SDS_P1;SDS_P2;PMS_P1;PMS_P2;Temp;Humidity;BMP_temperature;BMP_pressure;BME280_temperature;BME280_humidity;BME280_pressure;Samples;Min_cycle;Max_cycle;Signal;HPM_P1;HPM_P2
2023/10/16 00:02:22;;;;;;;0.00;0.00;;;;;;;;;;5078224;28;20032;-83
2023/10/16 00:04:48;;;;;;;0.00;0.00;;;;;;;;;;5061803;28;20027;-84
2023/10/16 00:07:13;;;;;;;0.00;0.00;;;;;;;;;;5077241;28;20128;-85
2023/10/16 00:09:40;;;;;;;0.00;0.00;;;;;;;;;;5044243;28;20028;-83
2023/10/16 00:12:07;;;;;;;0.00;0.00;;;;;;;;;;5060787;28;20085;-84
2023/10/16 00:14:33;;;;;;;0.00;0.00;;;;;;;;;;5077229;28;20020;-83
2023/10/16 00:16:58;;;;;;;0.00;0.00;;;;;;;;;;5060652;28;20081;-83
2023/10/16 00:19:24;;;;;;;0.00;0.00;;;;;;;;;;5095586;28;20106;-84
2023/10/16 00:21:52;;;;;;;0.00;0.00;;;;;;;;;;5044510;28;20020;-83
2023/10/16 00:24:17;;;;;;;0.00;0.00;;;;;;;;;;5061089;28;20024;-83
2023/10/16 00:26:49;;;;;;;0.00;0.00;;;;;;;;;;5094879;28;20024;-85
2023/10/16 00:29:24;;;;;;;0.00;0.00;;;;;;;;;;5044958;28;20047;-82
2023/10/16 00:31:58;;;;;;;0.10;0.00;;;;;;;;;;5094978;28;20038;-82
2023/10/16 00:34:24;;;;;;;0.00;0.00;;;;;;;;;;5063215;28;20024;-85
2023/10/16 00:36:50;;;;;;;0.00;0.00;;;;;;;;;;5043779;28;20150;-85
2023/10/16 00:39:15;;;;;;;0.00;0.00;;;;;;;;;;5055725;28;20573;-85
2023/10/16 00:41:42;;;;;;;0.10;0.00;;;;;;;;;;5059789;28;20377;-84
2023/10/16 00:44:07;;;;;;;0.00;0.00;;;;;;;;;;5059949;28;20051;-84
2023/10/16 00:46:36;;;;;;;0.00;0.00;;;;;;;;;;5060002;28;20441;-84
2023/10/16 00:49:05;;;;;;;0.00;0.00;;;;;;;;;;5061232;28;20024;-83
2023/10/16 00:51:36;;;;;;;0.00;0.00;;;;;;;;;;5076586;28;20028;-84
2023/10/16 00:54:02;;;;;;;0.30;0.00;;;;;;;;;;5043311;28;20027;-86
2023/10/16 00:56:28;;;;;;;0.00;0.00;;;;;;;;;;5059938;28;20028;-85
2023/10/16 00:58:55;;;;;;;0.10;0.00;;;;;;;;;;5060218;28;20024;-84
2023/10/16 01:01:22;;;;;;;0.00;0.00;;;;;;;;;;5076507;28;20430;-85
2023/10/16 01:03:48;;;;;;;0.00;0.00;;;;;;;;;;5076093;28;20462;-85
2023/10/16 01:06:31;;;;;;;0.00;0.00;;;;;;;;;;5076395;28;20026;-86
2023/10/16 01:08:58;;;;;;;0.00;0.00;;;;;;;;;;5064669;28;20358;-84
2023/10/16 01:11:26;;;;;;;0.00;0.00;;;;;;;;;;5059841;28;20024;-84
2023/10/16 01:13:53;;;;;;;0.00;0.00;;;;;;;;;;5059805;28;20036;-84
2023/10/16 01:16:19;;;;;;;0.00;0.00;;;;;;;;;;5094639;28;20085;-84
2023/10/16 01:18:45;;;;;;;0.00;0.00;;;;;;;;;;5075502;28;20036;-86
2023/10/16 01:21:13;;;;;;;0.00;0.00;;;;;;;;;;5076849;28;20119;-85
2023/10/16 01:23:39;;;;;;;0.00;0.00;;;;;;;;;;5043905;28;20032;-85
2023/10/16 01:26:05;;;;;;;0.10;0.00;;;;;;;;;;5043653;28;20035;-85
2023/10/16 01:28:31;;;;;;;0.00;0.00;;;;;;;;;;5060235;28;20043;-86
2023/10/16 01:30:57;;;;;;;0.00;0.00;;;;;;;;;;5044247;28;20032;-84
2023/10/16 01:33:25;;;;;;;0.03;0.00;;;;;;;;;;5079402;28;20042;-85
2023/10/16 01:35:51;;;;;;;0.00;0.00;;;;;;;;;;5056891;28;20020;-85
2023/10/16 01:38:19;;;;;;;0.00;0.00;;;;;;;;;;5080358;28;20032;-84
2023/10/16 01:41:04;;;;;;;0.00;0.00;;;;;;;;;;5071039;28;20035;-85
2023/10/16 01:43:30;;;;;;;0.00;0.00;;;;;;;;;;5058220;28;20033;-84
2023/10/16 01:45:59;;;;;;;0.00;0.00;;;;;;;;;;5041012;28;20024;-82
2023/10/16 01:48:28;;;;;;;0.00;0.00;;;;;;;;;;5055830;28;20025;-83
2023/10/16 01:50:54;;;;;;;0.00;0.00;;;;;;;;;;5023935;28;20112;-84
2023/10/16 01:53:25;;;;;;;0.00;0.00;;;;;;;;;;5022550;28;20521;-84
2023/10/16 01:55:54;;;;;;;0.00;0.00;;;;;;;;;;5040556;28;20026;-82
2023/10/16 01:58:21;;;;;;;0.00;0.00;;;;;;;;;;5055791;28;20085;-85
2023/10/16 02:00:48;;;;;;;0.00;0.00;;;;;;;;;;5039688;28;20176;-84
2023/10/16 02:03:17;;;;;;;0.00;0.00;;;;;;;;;;5052784;28;20039;-85
2023/10/16 02:05:45;;;;;;;0.00;0.00;;;;;;;;;;5054951;28;20178;-82
2023/10/16 02:08:12;;;;;;;0.00;0.00;;;;;;;;;;5055087;28;20039;-83
2023/10/16 02:10:38;;;;;;;0.00;0.00;;;;;;;;;;5038733;28;20033;-83
2023/10/16 02:13:03;;;;;;;0.00;0.00;;;;;;;;;;5055482;28;20036;-83
2023/10/16 02:15:29;;;;;;;0.00;0.00;;;;;;;;;;5073175;28;20115;-82
2023/10/16 02:17:55;;;;;;;0.00;0.00;;;;;;;;;;5055744;28;20047;-84
2023/10/16 02:20:26;;;;;;;0.00;0.00;;;;;;;;;;5073175;28;20466;-85
2023/10/16 02:22:53;;;;;;;0.00;0.00;;;;;;;;;;5073242;28;20031;-83
2023/10/16 02:25:18;;;;;;;0.03;0.00;;;;;;;;;;5022339;28;20123;-84
2023/10/16 02:27:44;;;;;;;0.00;0.00;;;;;;;;;;5048090;28;20143;-84
2023/10/16 02:32:53;;;;;;;0.00;0.00;;;;;;;;;;5081476;28;20138;-84
2023/10/16 02:35:21;;;;;;;0.00;0.00;;;;;;;;;;5047448;28;20024;-84
2023/10/16 02:37:53;;;;;;;0.00;0.00;;;;;;;;;;5062813;28;20036;-83
2023/10/16 02:40:20;;;;;;;0.00;0.00;;;;;;;;;;5063173;28;20034;-83
2023/10/16 02:42:51;;;;;;;0.00;0.00;;;;;;;;;;5062701;28;20538;-84
2023/10/16 02:45:26;;;;;;;0.00;0.00;;;;;;;;;;5064317;28;20028;-83
2023/10/16 02:47:52;;;;;;;0.00;0.00;;;;;;;;;;5048509;28;20036;-84
2023/10/16 02:50:19;;;;;;;0.00;0.00;;;;;;;;;;5045616;28;20043;-84
2023/10/16 02:52:45;;;;;;;0.00;0.00;;;;;;;;;;5079554;28;20155;-83
2023/10/16 02:55:11;;;;;;;0.00;0.00;;;;;;;;;;5078838;28;20024;-82
2023/10/16 02:57:40;;;;;;;0.00;0.00;;;;;;;;;;5062224;28;20047;-83
2023/10/16 03:00:08;;;;;;;0.00;0.00;;;;;;;;;;5079117;28;20020;-84
2023/10/16 03:02:34;;;;;;;0.00;0.00;;;;;;;;;;5045903;28;20176;-82
2023/10/16 03:05:21;;;;;;;0.00;0.00;;;;;;;;;;5045669;28;20034;-84
2023/10/16 03:07:53;;;;;;;0.00;0.00;;;;;;;;;;5081510;28;20031;-82
2023/10/16 03:10:22;;;;;;;0.00;0.00;;;;;;;;;;5063142;28;20028;-85
2023/10/16 03:12:50;;;;;;;0.00;0.00;;;;;;;;;;5046376;28;20036;-85
2023/10/16 03:15:42;;;;;;;0.00;0.00;;;;;;;;;;5062960;28;20024;-82
2023/10/16 03:18:02;;;;;;;0.00;0.00;;;;;;;;;;5067002;28;20390;-83
2023/10/16 03:20:35;;;;;;;0.00;0.00;;;;;;;;;;5096570;28;20072;-84
2023/10/16 03:23:00;;;;;;;0.00;0.00;;;;;;;;;;5063600;28;20462;-84
2023/10/16 03:26:19;;;;;;;0.00;0.00;;;;;;;;;;5061608;28;20035;-82
2023/10/16 03:28:18;;;;;;;0.00;0.00;;;;;;;;;;5076152;28;20040;-85
2023/10/16 03:30:43;;;;;;;0.00;0.00;;;;;;;;;;5096368;28;20024;-84
2023/10/16 03:33:13;;;;;;;0.00;0.00;;;;;;;;;;5072732;28;20731;-83
2023/10/16 03:35:45;;;;;;;0.00;0.00;;;;;;;;;;5058256;28;20123;-84
2023/10/16 03:38:12;;;;;;;0.00;0.00;;;;;;;;;;5078716;28;20020;-87
2023/10/16 03:40:38;;;;;;;0.00;0.00;;;;;;;;;;5061418;28;20027;-84
2023/10/16 03:43:03;;;;;;;0.00;0.00;;;;;;;;;;5077556;28;20110;-85
2023/10/16 03:45:29;;;;;;;0.00;0.00;;;;;;;;;;5077931;28;20115;-83
2023/10/16 03:47:57;;;;;;;0.00;0.00;;;;;;;;;;5078063;28;20024;-84
2023/10/16 03:50:34;;;;;;;0.00;0.00;;;;;;;;;;5078173;28;20028;-83
2023/10/16 03:53:00;;;;;;;0.00;0.00;;;;;;;;;;5095759;28;20024;-82
2023/10/16 03:55:25;;;;;;;0.00;0.00;;;;;;;;;;5044427;28;20092;-85
2023/10/16 03:57:52;;;;;;;0.00;0.00;;;;;;;;;;5060869;28;20036;-83
2023/10/16 04:00:19;;;;;;;0.00;0.00;;;;;;;;;;5095724;28;20092;-84
2023/10/16 04:02:44;;;;;;;0.00;0.00;;;;;;;;;;5095677;28;20089;-82
2023/10/16 04:05:29;;;;;;;0.00;0.00;;;;;;;;;;5044474;28;20031;-81
2023/10/16 04:07:55;;;;;;;0.32;0.03;;;;;;;;;;5080440;28;20032;-82
2023/10/16 04:10:30;;;;;;;0.30;0.10;;;;;;;;;;5044323;28;20042;-81
2023/10/16 04:12:57;;;;;;;0.00;0.00;;;;;;;;;;5078997;28;20060;-82
2023/10/16 04:18:28;;;;;;;0.00;0.00;;;;;;;;;;5060502;28;20039;-80
2023/10/16 04:31:55;;;;;;;0.00;0.00;;;;;;;;;;5095227;28;20127;-81
2023/10/16 04:37:24;;;;;;;0.00;0.00;;;;;;;;;;5040274;28;20025;-81
2023/10/16 04:50:15;;;;;;;0.00;0.00;;;;;;;;;;5073641;28;20040;-77
2023/10/16 04:58:42;;;;;;;0.00;0.00;;;;;;;;;;5063879;28;20035;-81
2023/10/16 05:06:38;;;;;;;0.00;0.00;;;;;;;;;;5048604;28;20092;-78
2023/10/16 05:15:37;;;;;;;0.00;0.00;;;;;;;;;;5053679;28;20035;-79
2023/10/16 05:17:21;;;;;;;0.00;0.00;;;;;;;;;;5054251;28;20028;-79
2023/10/16 05:19:53;;;;;;;0.00;0.00;;;;;;;;;;5052488;28;20142;-77
2023/10/16 06:14:34;;;;;;;0.00;0.00;;;;;;;;;;5074004;28;20144;-77
2023/10/16 06:17:00;;;;;;;0.00;0.00;;;;;;;;;;5074056;28;20024;-77
2023/10/16 06:19:26;;;;;;;0.00;0.00;;;;;;;;;;5079594;28;20030;-77
2023/10/16 06:21:57;;;;;;;0.00;0.00;;;;;;;;;;5103350;28;20020;-77
2023/10/16 06:24:35;;;;;;;0.00;0.00;;;;;;;;;;5048050;28;20088;-78
2023/10/16 06:27:20;;;;;;;0.00;0.00;;;;;;;;;;5060433;28;20321;-78
2023/10/16 06:29:57;;;;;;;0.00;0.00;;;;;;;;;;5060591;28;20032;-78
2023/10/16 06:32:25;;;;;;;0.00;0.00;;;;;;;;;;5059747;28;20031;-77
2023/10/16 06:34:58;;;;;;;0.00;0.00;;;;;;;;;;5075600;28;20476;-78
2023/10/16 06:37:24;;;;;;;0.00;0.00;;;;;;;;;;5095183;28;20430;-75
2023/10/16 06:39:58;;;;;;;0.00;0.00;;;;;;;;;;5086002;28;20046;-77
2023/10/16 06:43:09;;;;;;;0.00;0.00;;;;;;;;;;5067185;28;20078;-80
2023/10/16 06:45:42;;;;;;;0.00;0.00;;;;;;;;;;5074417;28;20028;-77
2023/10/16 06:48:17;;;;;;;0.00;0.00;;;;;;;;;;5077092;28;20031;-79
2023/10/16 06:50:53;;;;;;;0.00;0.00;;;;;;;;;;5080089;28;20043;-79
2023/10/16 06:53:19;;;;;;;0.00;0.00;;;;;;;;;;5067633;28;20036;-79
2023/10/16 06:55:50;;;;;;;0.00;0.00;;;;;;;;;;5079003;28;20024;-79
2023/10/16 06:58:18;;;;;;;0.00;0.00;;;;;;;;;;5057419;28;20074;-79
2023/10/16 07:00:47;;;;;;;0.00;0.00;;;;;;;;;;5075301;28;20028;-79
2023/10/16 07:03:13;;;;;;;0.00;0.00;;;;;;;;;;5067132;28;20039;-79
2023/10/16 07:05:45;;;;;;;0.00;0.00;;;;;;;;;;5083309;28;20024;-81
2023/10/16 07:08:18;;;;;;;0.00;0.00;;;;;;;;;;5065812;28;20028;-77
2023/10/16 07:10:52;;;;;;;0.00;0.00;;;;;;;;;;5096338;28;20028;-78
2023/10/16 07:13:26;;;;;;;0.00;0.00;;;;;;;;;;5047474;28;20049;-77
2023/10/16 07:15:59;;;;;;;0.00;0.00;;;;;;;;;;5080055;28;20024;-79
2023/10/16 07:18:25;;;;;;;0.00;0.00;;;;;;;;;;5050243;28;20082;-79
2023/10/16 07:23:30;;;;;;;0.00;0.00;;;;;;;;;;5106390;28;20093;-80
2023/10/16 07:25:59;;;;;;;0.00;0.00;;;;;;;;;;5102960;28;20028;-79
2023/10/16 07:28:27;;;;;;;0.00;0.00;;;;;;;;;;5083941;28;20051;-79
2023/10/16 07:30:56;;;;;;;0.00;0.00;;;;;;;;;;5085636;28;20437;-81
2023/10/16 07:33:22;;;;;;;0.00;0.00;;;;;;;;;;5101995;28;20051;-83
2023/10/16 07:35:48;;;;;;;0.00;0.00;;;;;;;;;;5085704;28;20028;-79
2023/10/16 07:38:21;;;;;;;0.00;0.00;;;;;;;;;;5087643;28;20024;-82
2023/10/16 07:40:53;;;;;;;0.00;0.00;;;;;;;;;;5047385;28;20031;-82
2023/10/16 07:43:26;;;;;;;0.00;0.00;;;;;;;;;;5051710;28;20028;-82
2023/10/16 07:46:16;;;;;;;0.00;0.00;;;;;;;;;;5064523;28;20024;-82
2023/10/16 07:48:50;;;;;;;0.00;0.00;;;;;;;;;;5065879;28;20073;-85
2023/10/16 07:51:20;;;;;;;0.00;0.00;;;;;;;;;;5050502;28;20020;-83
2023/10/16 07:53:50;;;;;;;0.00;0.00;;;;;;;;;;5050940;28;20024;-82
2023/10/16 07:56:25;;;;;;;0.00;0.00;;;;;;;;;;5069465;28;20350;-83
2023/10/16 07:59:06;;;;;;;0.00;0.00;;;;;;;;;;5075022;28;20035;-82
2023/10/16 08:01:52;;;;;;;0.00;0.00;;;;;;;;;;5106479;28;20024;-78
2023/10/16 08:07:46;;;;;;;0.00;0.00;;;;;;;;;;5081353;28;20039;-81
2023/10/16 08:12:18;;;;;;;0.00;0.00;;;;;;;;;;5101070;28;20063;-78
2023/10/16 08:14:44;;;;;;;;;;;;;;;;;;5069743;28;20028;-80
2023/10/16 08:17:17;;;;;;;0.00;0.00;;;;;;;;;;5102500;28;19919;-79
2023/10/16 08:19:49;;;;;;;0.00;0.00;;;;;;;;;;5082780;28;20147;-80
2023/10/16 08:22:25;;;;;;;0.00;0.00;;;;;;;;;;5085648;28;20032;-83
2023/10/16 08:25:04;;;;;;;0.00;0.00;;;;;;;;;;5083956;28;20423;-83
2023/10/16 08:31:10;;;;;;;0.00;0.00;;;;;;;;;;5057285;28;20028;-85
2023/10/16 08:33:30;;;;;;;0.10;0.00;;;;;;;;;;5095966;28;20094;-79
2023/10/16 08:35:58;;;;;;;0.00;0.00;;;;;;;;;;5066915;28;20103;-79
2023/10/16 08:38:32;;;;;;;0.00;0.00;;;;;;;;;;5117598;22;20015;-80
2023/10/16 08:41:07;;;;;;;0.00;0.00;;;;;;;;;;5031378;28;20029;-77
2023/10/16 08:43:39;;;;;;;0.00;0.00;;;;;;;;;;5046103;28;20358;-79
2023/10/16 08:46:18;;;;;;;0.00;0.00;;;;;;;;;;5040169;28;20033;-84
2023/10/16 08:48:48;;;;;;;0.00;0.00;;;;;;;;;;5023302;28;20164;-86
2023/10/16 08:51:16;;;;;;;0.00;0.00;;;;;;;;;;5038188;28;20036;-83
2023/10/16 08:53:45;;;;;;;0.00;0.00;;;;;;;;;;5060902;28;20096;-83
2023/10/16 08:56:23;;;;;;;0.00;0.00;;;;;;;;;;5038583;28;20079;-85
2023/10/16 08:58:49;;;;;;;0.00;0.00;;;;;;;;;;5013602;28;20030;-84
2023/10/16 09:01:37;;;;;;;0.00;0.00;;;;;;;;;;5048396;28;20025;-87
2023/10/16 09:04:14;;;;;;;0.00;0.00;;;;;;;;;;5054349;28;20086;-83
2023/10/16 09:06:40;;;;;;;0.00;0.00;;;;;;;;;;5031845;28;20064;-84
2023/10/16 09:09:16;;;;;;;0.00;0.00;;;;;;;;;;5023136;28;20443;-84
2023/10/16 09:11:49;;;;;;;0.00;0.00;;;;;;;;;;5013240;28;20028;-82
2023/10/16 09:14:18;;;;;;;0.10;0.00;;;;;;;;;;5042686;28;20025;-83
2023/10/16 09:16:51;;;;;;;0.00;0.00;;;;;;;;;;5008989;28;20492;-85
2023/10/16 09:19:18;;;;;;;0.00;0.00;;;;;;;;;;5025511;28;20056;-83
2023/10/16 09:21:44;;;;;;;0.00;0.00;;;;;;;;;;5042287;28;20039;-83
2023/10/16 09:24:13;;;;;;;0.00;0.00;;;;;;;;;;5025535;28;20123;-83
2023/10/16 09:26:44;;;;;;;0.00;0.00;;;;;;;;;;5025551;28;20060;-83
2023/10/16 09:29:14;;;;;;;0.00;0.00;;;;;;;;;;5043865;28;20033;-83
2023/10/16 09:31:46;;;;;;;0.00;0.00;;;;;;;;;;5027783;28;20060;-83
2023/10/16 09:34:14;;;;;;;0.00;0.00;;;;;;;;;;5047219;28;20029;-87
2023/10/16 09:36:39;;;;;;;0.00;0.00;;;;;;;;;;5022406;28;20032;-85
2023/10/16 09:39:30;;;;;;;0.00;0.00;;;;;;;;;;5045474;28;20040;-84
2023/10/16 09:41:51;;;;;;;0.00;0.00;;;;;;;;;;5064267;28;20111;-86
2023/10/16 09:44:22;;;;;;;0.00;0.00;;;;;;;;;;5053308;28;20039;-85
2023/10/16 09:46:52;;;;;;;0.00;0.00;;;;;;;;;;5038275;28;20058;-84
2023/10/16 09:49:21;;;;;;;0.00;0.00;;;;;;;;;;5051173;28;20035;-84
2023/10/16 09:51:53;;;;;;;0.00;0.00;;;;;;;;;;5052082;28;20060;-84
2023/10/16 09:54:21;;;;;;;0.00;0.00;;;;;;;;;;5035077;28;20028;-86
2023/10/16 09:56:48;;;;;;;0.00;0.00;;;;;;;;;;5051731;28;20052;-85
2023/10/16 09:59:26;;;;;;;0.00;0.00;;;;;;;;;;5067300;28;20053;-85
2023/10/16 10:01:55;;;;;;;0.00;0.00;;;;;;;;;;5035423;28;20028;-85
2023/10/16 10:04:24;;;;;;;0.00;0.00;;;;;;;;;;5034371;28;20082;-84
2023/10/16 10:06:57;;;;;;;0.00;0.00;;;;;;;;;;5050370;28;20028;-85
2023/10/16 10:09:34;;;;;;;0.00;0.00;;;;;;;;;;5050626;28;20039;-83
2023/10/16 10:12:22;;;;;;;0.00;0.00;;;;;;;;;;5036770;28;20074;-83
2023/10/16 10:15:05;;;;;;;0.00;0.00;;;;;;;;;;5037883;28;20032;-85
2023/10/16 10:17:30;;;;;;;0.00;0.00;;;;;;;;;;5036470;28;20066;-83
2023/10/16 10:20:00;;;;;;;0.00;0.00;;;;;;;;;;5050961;28;20020;-84
2023/10/16 10:22:27;;;;;;;0.00;0.00;;;;;;;;;;5052289;28;20021;-84
2023/10/16 10:25:58;;;;;;;0.00;0.00;;;;;;;;;;5038696;28;20419;-86
2023/10/16 10:28:09;;;;;;;0.00;0.00;;;;;;;;;;5052803;28;20116;-83
2023/10/16 10:30:38;;;;;;;0.00;0.00;;;;;;;;;;5047811;28;20089;-85
2023/10/16 10:33:04;;;;;;;0.00;0.00;;;;;;;;;;5012807;28;20029;-84
2023/10/16 10:35:38;;;;;;;0.00;0.00;;;;;;;;;;5046239;28;20021;-84
2023/10/16 10:38:29;;;;;;;0.00;0.00;;;;;;;;;;5031668;28;20056;-83
2023/10/16 10:41:04;;;;;;;0.00;0.00;;;;;;;;;;5033171;28;20040;-84
2023/10/16 10:43:46;;;;;;;0.00;0.00;;;;;;;;;;5048341;28;20059;-83
2023/10/16 10:46:20;;;;;;;0.00;0.00;;;;;;;;;;5044227;28;20048;-83
2023/10/16 10:48:46;;;;;;;0.00;0.00;;;;;;;;;;5026715;28;20029;-80
2023/10/16 10:51:14;;;;;;;0.00;0.00;;;;;;;;;;5026596;28;20040;-83
2023/10/16 10:53:56;;;;;;;0.00;0.00;;;;;;;;;;5031518;28;20137;-82
2023/10/16 10:56:22;;;;;;;0.00;0.00;;;;;;;;;;5063406;28;20106;-83
2023/10/16 10:58:48;;;;;;;0.00;0.00;;;;;;;;;;5014179;28;20458;-84
2023/10/16 11:01:26;;;;;;;0.00;0.00;;;;;;;;;;5030425;28;20129;-82
2023/10/16 11:03:53;;;;;;;0.00;0.00;;;;;;;;;;5033915;28;20048;-84
2023/10/16 11:06:19;;;;;;;0.00;0.00;;;;;;;;;;5030513;28;20036;-84
2023/10/16 11:08:50;;;;;;;0.00;0.00;;;;;;;;;;5030776;28;20408;-83
2023/10/16 11:11:16;;;;;;;0.00;0.00;;;;;;;;;;5030976;28;20025;-81
2023/10/16 11:13:47;;;;;;;0.00;0.00;;;;;;;;;;5013469;28;20469;-81
2023/10/16 11:16:14;;;;;;;0.00;0.00;;;;;;;;;;5028930;28;20116;-82
2023/10/16 11:18:43;;;;;;;0.00;0.00;;;;;;;;;;5046741;28;20021;-83
2023/10/16 11:21:09;;;;;;;0.00;0.00;;;;;;;;;;5064840;28;20028;-83
2023/10/16 11:23:38;;;;;;;0.00;0.00;;;;;;;;;;5028833;28;20032;-83
2023/10/16 11:26:05;;;;;;;0.00;0.00;;;;;;;;;;5046961;28;20029;-81
2023/10/16 11:28:35;;;;;;;0.00;0.00;;;;;;;;;;5048811;28;20093;-81
2023/10/16 11:31:01;;;;;;;0.00;0.00;;;;;;;;;;5059025;28;20029;-81
2023/10/16 11:33:47;;;;;;;0.00;0.00;;;;;;;;;;5059006;28;20024;-82
2023/10/16 11:36:16;;;;;;;0.00;0.00;;;;;;;;;;5059597;28;20033;-81
2023/10/16 11:38:44;;;;;;;0.00;0.00;;;;;;;;;;5045961;28;20470;-84
2023/10/16 11:41:16;;;;;;;0.00;0.00;;;;;;;;;;5029207;28;20033;-82
2023/10/16 11:43:51;;;;;;;0.00;0.00;;;;;;;;;;5043209;28;20040;-84
2023/10/16 11:46:33;;;;;;;0.00;0.00;;;;;;;;;;5027508;28;20060;-82
2023/10/16 11:49:17;;;;;;;0.00;0.00;;;;;;;;;;5029647;28;20056;-84
2023/10/16 11:51:51;;;;;;;0.00;0.00;;;;;;;;;;5045675;28;20045;-81
2023/10/16 11:54:40;;;;;;;0.00;0.00;;;;;;;;;;5042872;28;20097;-82
2023/10/16 11:57:06;;;;;;;0.00;0.00;;;;;;;;;;5044506;28;20045;-82
2023/10/16 11:59:32;;;;;;;0.00;0.00;;;;;;;;;;5028888;28;20120;-84
2023/10/16 12:02:10;;;;;;;0.00;0.00;;;;;;;;;;5044836;28;20095;-83
2023/10/16 12:04:37;;;;;;;0.00;0.00;;;;;;;;;;5059729;28;20033;-82
2023/10/16 12:07:02;;;;;;;0.00;0.00;;;;;;;;;;5041321;28;20029;-84
2023/10/16 12:09:36;;;;;;;0.00;0.00;;;;;;;;;;5026552;28;20094;-83
2023/10/16 12:12:06;;;;;;;0.00;0.00;;;;;;;;;;5059769;28;20071;-83
2023/10/16 12:14:37;;;;;;;0.00;0.00;;;;;;;;;;5043223;28;20041;-81
2023/10/16 12:17:12;;;;;;;0.00;0.00;;;;;;;;;;5025928;28;20040;-81
2023/10/16 12:19:37;;;;;;;0.00;0.00;;;;;;;;;;5043677;28;20029;-83
2023/10/16 12:22:03;;;;;;;0.00;0.00;;;;;;;;;;5026467;28;20090;-82
2023/10/16 12:24:29;;;;;;;0.00;0.00;;;;;;;;;;5026057;28;20029;-82
2023/10/16 12:26:55;;;;;;;0.00;0.00;;;;;;;;;;5042569;28;20301;-82
2023/10/16 12:29:20;;;;;;;0.00;0.00;;;;;;;;;;5048210;28;20029;-84
2023/10/16 12:31:48;;;;;;;0.00;0.00;;;;;;;;;;5057493;28;20039;-83
2023/10/16 12:34:16;;;;;;;0.00;0.00;;;;;;;;;;5057514;28;20029;-85
2023/10/16 12:36:43;;;;;;;0.00;0.00;;;;;;;;;;5073721;28;20039;-84
2023/10/16 12:39:24;;;;;;;0.00;0.00;;;;;;;;;;5052012;28;20056;-83
2023/10/16 12:41:54;;;;;;;0.00;0.00;;;;;;;;;;5044871;28;20123;-81
2023/10/16 12:44:19;;;;;;;0.00;0.00;;;;;;;;;;5040475;28;20025;-84
2023/10/16 12:46:45;;;;;;;0.00;0.00;;;;;;;;;;5040687;28;20025;-87
2023/10/16 12:49:10;;;;;;;0.00;0.00;;;;;;;;;;5074529;28;20066;-83
2023/10/16 12:51:36;;;;;;;0.00;0.00;;;;;;;;;;5040467;28;20146;-83
2023/10/16 12:54:03;;;;;;;0.00;0.00;;;;;;;;;;5040487;28;20021;-84
2023/10/16 12:56:35;;;;;;;0.00;0.00;;;;;;;;;;5040143;28;20036;-84
2023/10/16 12:59:01;;;;;;;0.00;0.00;;;;;;;;;;5040519;28;20389;-82
2023/10/16 13:01:26;;;;;;;0.00;0.00;;;;;;;;;;5040374;28;20020;-84
2023/10/16 13:03:59;;;;;;;0.00;0.00;;;;;;;;;;5039766;28;20032;-83
2023/10/16 13:06:28;;;;;;;0.00;0.00;;;;;;;;;;5025730;28;20458;-82
2023/10/16 13:08:57;;;;;;;0.00;0.00;;;;;;;;;;5040675;28;20024;-83
2023/10/16 13:11:24;;;;;;;0.00;0.00;;;;;;;;;;5040205;28;20473;-83
2023/10/16 13:13:50;;;;;;;0.00;0.00;;;;;;;;;;5023431;28;20020;-82
2023/10/16 13:16:24;;;;;;;0.00;0.00;;;;;;;;;;5056488;28;20186;-82
2023/10/16 13:18:57;;;;;;;0.00;0.00;;;;;;;;;;5041263;28;20025;-82
2023/10/16 13:21:33;;;;;;;0.00;0.00;;;;;;;;;;5041711;28;20028;-85
2023/10/16 13:24:14;;;;;;;0.00;0.00;;;;;;;;;;5025808;28;20033;-84
2023/10/16 13:26:40;;;;;;;0.00;0.00;;;;;;;;;;5057098;28;20028;-85
2023/10/16 13:29:11;;;;;;;0.00;0.00;;;;;;;;;;5033569;28;20021;-84
2023/10/16 13:31:45;;;;;;;0.00;0.00;;;;;;;;;;5037678;28;20033;-83
2023/10/16 13:34:13;;;;;;;0.00;0.00;;;;;;;;;;5032301;28;20083;-84
2023/10/16 13:36:40;;;;;;;0.00;0.00;;;;;;;;;;5052136;28;20478;-83
2023/10/16 13:39:08;;;;;;;0.00;0.00;;;;;;;;;;5044523;28;20103;-84
2023/10/16 13:41:50;;;;;;;0.00;0.00;;;;;;;;;;5056260;28;20033;-84
2023/10/16 13:44:29;;;;;;;0.00;0.00;;;;;;;;;;5057522;28;20040;-83
2023/10/16 13:46:54;;;;;;;0.00;0.00;;;;;;;;;;5072075;28;20572;-84
2023/10/16 13:49:21;;;;;;;0.00;0.00;;;;;;;;;;5038874;28;20028;-84
2023/10/16 13:51:47;;;;;;;0.00;0.00;;;;;;;;;;5039229;28;20044;-84
2023/10/16 13:54:14;;;;;;;0.00;0.00;;;;;;;;;;5039014;28;20036;-85
2023/10/16 13:56:40;;;;;;;0.00;0.00;;;;;;;;;;5055610;28;20033;-83
2023/10/16 13:59:06;;;;;;;0.00;0.00;;;;;;;;;;5038782;28;20127;-83
2023/10/16 14:01:33;;;;;;;0.00;0.00;;;;;;;;;;5038877;28;20174;-84
2023/10/16 14:03:58;;;;;;;0.00;0.00;;;;;;;;;;5072106;28;20146;-82
2023/10/16 14:06:25;;;;;;;0.00;0.00;;;;;;;;;;5055734;28;20111;-83
2023/10/16 14:08:51;;;;;;;0.00;0.00;;;;;;;;;;5072500;28;20079;-83
2023/10/16 14:11:17;;;;;;;0.00;0.00;;;;;;;;;;5072720;28;20356;-83
2023/10/16 14:13:43;;;;;;;0.00;0.00;;;;;;;;;;5023207;28;20020;-85
2023/10/16 14:16:11;;;;;;;0.00;0.00;;;;;;;;;;5072061;28;20028;-83
2023/10/16 14:18:48;;;;;;;0.00;0.00;;;;;;;;;;5056162;28;20025;-83
2023/10/16 14:21:16;;;;;;;0.00;0.00;;;;;;;;;;5026245;28;20119;-84
2023/10/16 14:23:43;;;;;;;0.00;0.00;;;;;;;;;;5072294;28;20477;-82
2023/10/16 14:26:24;;;;;;;0.00;0.00;;;;;;;;;;5057680;28;20042;-81
2023/10/16 14:28:59;;;;;;;0.00;0.00;;;;;;;;;;5061818;28;20111;-83
2023/10/16 14:31:25;;;;;;;0.00;0.00;;;;;;;;;;5075827;28;20059;-84
2023/10/16 14:33:53;;;;;;;0.00;0.00;;;;;;;;;;5042614;28;20119;-83
2023/10/16 14:36:18;;;;;;;0.00;0.00;;;;;;;;;;5077312;28;20036;-83
2023/10/16 14:38:45;;;;;;;0.00;0.00;;;;;;;;;;5042702;28;20044;-82
2023/10/16 14:41:17;;;;;;;0.00;0.00;;;;;;;;;;5077362;28;20029;-83
2023/10/16 14:43:46;;;;;;;0.00;0.00;;;;;;;;;;5044397;28;20144;-83
2023/10/16 14:46:11;;;;;;;0.00;0.00;;;;;;;;;;5027125;28;20028;-83
2023/10/16 14:48:43;;;;;;;0.00;0.00;;;;;;;;;;5042724;28;20020;-82
2023/10/16 14:51:12;;;;;;;0.00;0.00;;;;;;;;;;5043544;28;20037;-83
2023/10/16 14:53:39;;;;;;;0.00;0.00;;;;;;;;;;5059877;28;20081;-82
2023/10/16 14:56:06;;;;;;;0.00;0.00;;;;;;;;;;5026159;28;20506;-84
2023/10/16 14:58:31;;;;;;;0.00;0.00;;;;;;;;;;5042893;28;20021;-84
2023/10/16 15:00:58;;;;;;;0.00;0.00;;;;;;;;;;5042643;28;20471;-83
2023/10/16 15:03:23;;;;;;;0.00;0.00;;;;;;;;;;5059155;28;20016;-83
2023/10/16 15:05:49;;;;;;;0.00;0.00;;;;;;;;;;5034065;28;20043;-84
2023/10/16 15:08:15;;;;;;;0.00;0.00;;;;;;;;;;5022466;28;20056;-84
2023/10/16 15:10:44;;;;;;;0.00;0.00;;;;;;;;;;5038906;28;20032;-84
2023/10/16 15:13:12;;;;;;;0.00;0.00;;;;;;;;;;5057524;28;20024;-84
2023/10/16 15:15:39;;;;;;;0.00;0.00;;;;;;;;;;5042953;28;20430;-81
2023/10/16 15:18:09;;;;;;;0.00;0.00;;;;;;;;;;5041269;28;20383;-82
2023/10/16 15:20:39;;;;;;;0.00;0.00;;;;;;;;;;5024421;28;20020;-85
2023/10/16 15:23:05;;;;;;;0.00;0.00;;;;;;;;;;5056938;28;20627;-84
2023/10/16 15:25:32;;;;;;;0.00;0.00;;;;;;;;;;5040315;28;20024;-84
2023/10/16 15:27:58;;;;;;;0.00;0.00;;;;;;;;;;5023689;28;20039;-85
2023/10/16 15:30:26;;;;;;;0.00;0.00;;;;;;;;;;5040713;28;20035;-84
2023/10/16 15:32:52;;;;;;;0.00;0.00;;;;;;;;;;5041254;28;20020;-84
2023/10/16 15:35:17;;;;;;;0.00;0.00;;;;;;;;;;5057116;28;20461;-84
2023/10/16 15:37:43;;;;;;;0.00;0.00;;;;;;;;;;5040700;28;20032;-84
2023/10/16 15:40:15;;;;;;;0.00;0.00;;;;;;;;;;5048991;28;20444;-83
2023/10/16 15:42:48;;;;;;;0.00;0.00;;;;;;;;;;5054655;28;20070;-84
2023/10/16 15:45:14;;;;;;;0.00;0.00;;;;;;;;;;5022466;28;20025;-83
2023/10/16 15:47:41;;;;;;;0.00;0.00;;;;;;;;;;5038253;28;20375;-85
2023/10/16 15:50:10;;;;;;;0.00;0.00;;;;;;;;;;5038487;28;20347;-84
2023/10/16 15:52:37;;;;;;;0.00;0.00;;;;;;;;;;5022035;28;20035;-83
2023/10/16 15:55:02;;;;;;;0.00;0.00;;;;;;;;;;5038054;28;20366;-83
2023/10/16 15:57:30;;;;;;;0.00;0.00;;;;;;;;;;5004759;28;20039;-83
2023/10/16 15:59:55;;;;;;;0.00;0.00;;;;;;;;;;5038580;28;20052;-82
2023/10/16 16:02:21;;;;;;;0.00;0.00;;;;;;;;;;5037851;28;20470;-83
2023/10/16 16:04:53;;;;;;;0.00;0.00;;;;;;;;;;5026448;28;20036;-84
2023/10/16 16:07:19;;;;;;;0.00;0.00;;;;;;;;;;5058772;28;20024;-83
2023/10/16 16:09:47;;;;;;;0.00;0.00;;;;;;;;;;5041190;28;20361;-83
2023/10/16 16:12:14;;;;;;;0.00;0.00;;;;;;;;;;5075283;28;20035;-84
2023/10/16 16:14:42;;;;;;;0.00;0.00;;;;;;;;;;5041373;28;20430;-84
2023/10/16 16:17:09;;;;;;;0.00;0.00;;;;;;;;;;5041578;28;20038;-83
2023/10/16 16:19:35;;;;;;;0.00;0.00;;;;;;;;;;5041426;28;20032;-84
2023/10/16 16:22:01;;;;;;;0.00;0.00;;;;;;;;;;5024741;28;20031;-83
2023/10/16 16:24:26;;;;;;;0.00;0.00;;;;;;;;;;5040914;28;20471;-83
2023/10/16 16:26:52;;;;;;;0.00;0.00;;;;;;;;;;5024135;28;20028;-84
2023/10/16 16:29:17;;;;;;;0.00;0.00;;;;;;;;;;5041466;28;20057;-82
2023/10/16 16:31:43;;;;;;;0.00;0.00;;;;;;;;;;5057480;28;20024;-84
2023/10/16 16:34:08;;;;;;;0.00;0.00;;;;;;;;;;5040677;28;20021;-84
2023/10/16 16:36:35;;;;;;;0.00;0.00;;;;;;;;;;5023470;28;20135;-83
2023/10/16 16:39:02;;;;;;;0.00;0.00;;;;;;;;;;5040713;28;20563;-83
2023/10/16 16:41:28;;;;;;;0.00;0.00;;;;;;;;;;5074741;28;20033;-82
2023/10/16 16:43:54;;;;;;;0.00;0.00;;;;;;;;;;5041152;28;20078;-81
2023/10/16 16:46:20;;;;;;;0.00;0.00;;;;;;;;;;5024186;28;20032;-82
2023/10/16 16:48:46;;;;;;;0.00;0.00;;;;;;;;;;5073870;28;20028;-80
2023/10/16 16:51:14;;;;;;;0.00;0.00;;;;;;;;;;5040277;28;20021;-82